RYR61FB EDDK-EIDW
Flight info
| Callsign | RYR61FB |
|---|---|
| Flight time | 1h 36m |
| Altitude | 36000 |
| Route | NVO3P NVO Y868 NAVAK DCT DENUT L610 KOPUL Q60 OKSAW DCT TEWXI DCT LANON L18 LIPGO LIPGO3R |
| Aircraft | B738/M-SDE2E3FGHIRWXY/LB1 |
Departure
| Time | 2026-04-22 19:51 |
|---|---|
| Airport | Cologne Bonn Airport (EDDK) |
Arrival
| Time | 2026-04-22 21:28 |
|---|---|
| Airport | Dublin Airport (EIDW) |
| Time | Latitude | Longitude | Altitude | Speed | Heading |
|---|---|---|---|---|---|
| 2026-04-22 19:28 | 50.88221 | 7.11856 | 231 ft | 0 kts | 216° |
| 2026-04-22 19:36 | 50.88229 | 7.11866 | 231 ft | 4 kts | 212° |
| 2026-04-22 19:37 | 50.88253 | 7.11883 | 233 ft | 4 kts | 186° |
| 2026-04-22 19:37 | 50.88277 | 7.11877 | 231 ft | 4 kts | 142° |
| 2026-04-22 19:37 | 50.88286 | 7.11864 | 234 ft | 0 kts | 126° |
| 2026-04-22 19:40 | 50.88281 | 7.11880 | 232 ft | 5 kts | 111° |
| 2026-04-22 19:41 | 50.88280 | 7.11966 | 231 ft | 9 kts | 101° |
| 2026-04-22 19:41 | 50.88246 | 7.12051 | 231 ft | 10 kts | 127° |
| 2026-04-22 19:41 | 50.88200 | 7.12150 | 233 ft | 13 kts | 126° |
| 2026-04-22 19:41 | 50.88154 | 7.12280 | 231 ft | 14 kts | 99° |
| 2026-04-22 19:42 | 50.88141 | 7.12410 | 232 ft | 11 kts | 126° |
| 2026-04-22 19:42 | 50.88087 | 7.12498 | 231 ft | 11 kts | 137° |
| 2026-04-22 19:42 | 50.88032 | 7.12578 | 231 ft | 11 kts | 137° |
| 2026-04-22 19:42 | 50.87990 | 7.12668 | 234 ft | 10 kts | 104° |
| 2026-04-22 19:43 | 50.87998 | 7.12758 | 235 ft | 0 kts | 73° |
| 2026-04-22 19:48 | 50.88005 | 7.12798 | 237 ft | 9 kts | 78° |
| 2026-04-22 19:48 | 50.88010 | 7.12916 | 238 ft | 12 kts | 89° |
| 2026-04-22 19:48 | 50.87992 | 7.12989 | 238 ft | 0 kts | 137° |
| 2026-04-22 19:50 | 50.87918 | 7.13098 | 238 ft | 42 kts | 137° |
| 2026-04-22 19:50 | 50.87531 | 7.13658 | 239 ft | 106 kts | 137° |
| 2026-04-22 19:51 | 50.86853 | 7.14639 | 263 ft | 156 kts | 138° |
| 2026-04-22 19:51 | 50.85987 | 7.15884 | 628 ft | 171 kts | 135° |
| 2026-04-22 19:51 | 50.85109 | 7.17147 | 1381 ft | 168 kts | 135° |
| 2026-04-22 19:51 | 50.84250 | 7.18349 | 2166 ft | 166 kts | 134° |
| 2026-04-22 19:52 | 50.83318 | 7.19657 | 2485 ft | 194 kts | 135° |
| 2026-04-22 19:52 | 50.82251 | 7.21147 | 2749 ft | 213 kts | 136° |
| 2026-04-22 19:52 | 50.81116 | 7.22723 | 3226 ft | 221 kts | 137° |
| 2026-04-22 19:52 | 50.79885 | 7.24234 | 3848 ft | 227 kts | 154° |
| 2026-04-22 19:53 | 50.78325 | 7.24603 | 4572 ft | 233 kts | 184° |
| 2026-04-22 19:53 | 50.76773 | 7.23807 | 5194 ft | 242 kts | 216° |
| 2026-04-22 19:53 | 50.75737 | 7.21740 | 5874 ft | 244 kts | 245° |
| 2026-04-22 19:53 | 50.75086 | 7.19245 | 6525 ft | 248 kts | 255° |
| 2026-04-22 19:54 | 50.75038 | 7.16511 | 6981 ft | 259 kts | 282° |
| 2026-04-22 19:54 | 50.75335 | 7.13621 | 7260 ft | 279 kts | 278° |
| 2026-04-22 19:54 | 50.75539 | 7.10525 | 7858 ft | 286 kts | 277° |
| 2026-04-22 19:54 | 50.75728 | 7.07384 | 8562 ft | 289 kts | 277° |
| 2026-04-22 19:55 | 50.75921 | 7.04203 | 9267 ft | 293 kts | 277° |
| 2026-04-22 19:55 | 50.76120 | 7.00977 | 9938 ft | 298 kts | 277° |
| 2026-04-22 19:55 | 50.76326 | 6.97705 | 10580 ft | 303 kts | 278° |
| 2026-04-22 19:55 | 50.76545 | 6.94287 | 10782 ft | 324 kts | 278° |
| 2026-04-22 19:56 | 50.76781 | 6.90636 | 10979 ft | 345 kts | 278° |
| 2026-04-22 19:56 | 50.77032 | 6.86766 | 11166 ft | 363 kts | 278° |
| 2026-04-22 19:56 | 50.77291 | 6.82735 | 11657 ft | 371 kts | 278° |
| 2026-04-22 19:56 | 50.77551 | 6.78666 | 12299 ft | 374 kts | 278° |
| 2026-04-22 19:57 | 50.77812 | 6.74558 | 12973 ft | 377 kts | 278° |
| 2026-04-22 19:57 | 50.78074 | 6.70417 | 13664 ft | 380 kts | 278° |
| 2026-04-22 19:57 | 50.78338 | 6.66243 | 14318 ft | 384 kts | 278° |
| 2026-04-22 19:57 | 50.78604 | 6.62017 | 14957 ft | 387 kts | 278° |
| 2026-04-22 19:58 | 50.78870 | 6.57770 | 15615 ft | 390 kts | 278° |
| 2026-04-22 19:58 | 50.79137 | 6.53481 | 16203 ft | 395 kts | 279° |
| 2026-04-22 19:58 | 50.79406 | 6.49139 | 16821 ft | 398 kts | 279° |
| 2026-04-22 19:58 | 50.79675 | 6.44763 | 17476 ft | 401 kts | 279° |
| 2026-04-22 19:59 | 50.79945 | 6.40350 | 18118 ft | 404 kts | 279° |
| 2026-04-22 20:00 | 50.81562 | 6.13271 | 20381 ft | 420 kts | 278° |
| 2026-04-22 20:00 | 50.81834 | 6.08636 | 20764 ft | 425 kts | 278° |
| 2026-04-22 20:01 | 50.82104 | 6.03972 | 21404 ft | 424 kts | 278° |
| 2026-04-22 20:01 | 50.82372 | 5.99323 | 22023 ft | 425 kts | 278° |
| 2026-04-22 20:01 | 50.82640 | 5.94649 | 22539 ft | 428 kts | 279° |
| 2026-04-22 20:01 | 50.83059 | 5.89987 | 22964 ft | 429 kts | 287° |
| 2026-04-22 20:02 | 50.83864 | 5.85440 | 23465 ft | 429 kts | 290° |
| 2026-04-22 20:02 | 50.84751 | 5.80922 | 23961 ft | 431 kts | 291° |
| 2026-04-22 20:02 | 50.85657 | 5.76387 | 24360 ft | 433 kts | 291° |
| 2026-04-22 20:02 | 50.86562 | 5.71827 | 24769 ft | 435 kts | 291° |
| 2026-04-22 20:03 | 50.87459 | 5.67239 | 25184 ft | 437 kts | 290° |
| 2026-04-22 20:03 | 50.88346 | 5.62634 | 25562 ft | 439 kts | 290° |
| 2026-04-22 20:03 | 50.89231 | 5.57982 | 25962 ft | 440 kts | 290° |
| 2026-04-22 20:03 | 50.90099 | 5.53387 | 26333 ft | 442 kts | 290° |
| 2026-04-22 20:04 | 50.90979 | 5.48703 | 26697 ft | 444 kts | 290° |
| 2026-04-22 20:04 | 50.91859 | 5.43998 | 27068 ft | 446 kts | 290° |
| 2026-04-22 20:04 | 50.92741 | 5.39271 | 27416 ft | 448 kts | 290° |
| 2026-04-22 20:04 | 50.93628 | 5.34507 | 27766 ft | 450 kts | 290° |
| 2026-04-22 20:05 | 50.94515 | 5.29729 | 28106 ft | 452 kts | 290° |
| 2026-04-22 20:05 | 50.95404 | 5.24930 | 28427 ft | 454 kts | 290° |
| 2026-04-22 20:05 | 50.96283 | 5.20173 | 28741 ft | 456 kts | 290° |
| 2026-04-22 20:05 | 50.97176 | 5.15333 | 29051 ft | 457 kts | 290° |
| 2026-04-22 20:06 | 50.98068 | 5.10480 | 29386 ft | 459 kts | 290° |
| 2026-04-22 20:06 | 50.98958 | 5.05628 | 29808 ft | 458 kts | 290° |
| 2026-04-22 20:06 | 50.99842 | 5.00789 | 30313 ft | 455 kts | 290° |
| 2026-04-22 20:06 | 51.00718 | 4.95978 | 30754 ft | 452 kts | 290° |
| 2026-04-22 20:07 | 51.01590 | 4.91184 | 31075 ft | 452 kts | 290° |
| 2026-04-22 20:07 | 51.02463 | 4.86378 | 31349 ft | 453 kts | 289° |
| 2026-04-22 20:07 | 51.03333 | 4.81571 | 31666 ft | 453 kts | 289° |
| 2026-04-22 20:07 | 51.04200 | 4.76769 | 32019 ft | 451 kts | 289° |
| 2026-04-22 20:08 | 51.05063 | 4.71980 | 32353 ft | 450 kts | 289° |
| 2026-04-22 20:08 | 51.05918 | 4.67211 | 32861 ft | 445 kts | 289° |
| 2026-04-22 20:08 | 51.06763 | 4.62491 | 33269 ft | 443 kts | 289° |
| 2026-04-22 20:08 | 51.07606 | 4.57771 | 33504 ft | 445 kts | 289° |
| 2026-04-22 20:09 | 51.08452 | 4.53033 | 33729 ft | 446 kts | 289° |
| 2026-04-22 20:09 | 51.09296 | 4.48288 | 34046 ft | 445 kts | 289° |
| 2026-04-22 20:09 | 51.10134 | 4.43558 | 34399 ft | 443 kts | 289° |
| 2026-04-22 20:09 | 51.10966 | 4.38849 | 34652 ft | 443 kts | 289° |
| 2026-04-22 20:10 | 51.11802 | 4.34110 | 34830 ft | 444 kts | 289° |
| 2026-04-22 20:10 | 51.12637 | 4.29363 | 35008 ft | 445 kts | 289° |
| 2026-04-22 20:10 | 51.13470 | 4.24616 | 35233 ft | 445 kts | 289° |
| 2026-04-22 20:10 | 51.14299 | 4.19876 | 35467 ft | 445 kts | 289° |
| 2026-04-22 20:11 | 51.15128 | 4.15122 | 35649 ft | 445 kts | 289° |
| 2026-04-22 20:11 | 51.15945 | 4.10427 | 35840 ft | 446 kts | 288° |
| 2026-04-22 20:11 | 51.16771 | 4.05662 | 36043 ft | 446 kts | 288° |
| 2026-04-22 20:11 | 51.17594 | 4.00908 | 36242 ft | 446 kts | 288° |
| 2026-04-22 20:12 | 51.18417 | 3.96137 | 36344 ft | 448 kts | 288° |
| 2026-04-22 20:12 | 51.19802 | 3.88083 | 36339 ft | 449 kts | 288° |
| 2026-04-22 20:13 | 51.21700 | 3.76983 | 36329 ft | 443 kts | 288° |
| 2026-04-22 20:13 | 51.23308 | 3.67525 | 36330 ft | 439 kts | 288° |
| 2026-04-22 20:14 | 51.24688 | 3.58055 | 36331 ft | 437 kts | 284° |
| 2026-04-22 20:14 | 51.25882 | 3.48525 | 36348 ft | 439 kts | 284° |
| 2026-04-22 20:15 | 51.27128 | 3.38941 | 36349 ft | 446 kts | 285° |
| 2026-04-22 20:15 | 51.28398 | 3.29202 | 36333 ft | 448 kts | 285° |
| 2026-04-22 20:16 | 51.29662 | 3.19437 | 36335 ft | 449 kts | 284° |
| 2026-04-22 20:16 | 51.30917 | 3.09667 | 36343 ft | 449 kts | 284° |
| 2026-04-22 20:17 | 51.32155 | 2.99960 | 36346 ft | 448 kts | 284° |
| 2026-04-22 20:17 | 51.33391 | 2.90203 | 36344 ft | 447 kts | 284° |
| 2026-04-22 20:18 | 51.34615 | 2.80480 | 36341 ft | 444 kts | 284° |
| 2026-04-22 20:18 | 51.35820 | 2.70808 | 36342 ft | 442 kts | 284° |
| 2026-04-22 20:19 | 51.36820 | 2.62645 | 36349 ft | 441 kts | 284° |
| 2026-04-22 20:19 | 51.37931 | 2.53497 | 36348 ft | 439 kts | 284° |
| 2026-04-22 20:20 | 51.39083 | 2.43972 | 36353 ft | 438 kts | 284° |
| 2026-04-22 20:20 | 51.40234 | 2.34405 | 36352 ft | 436 kts | 284° |
| 2026-04-22 20:21 | 51.41373 | 2.24861 | 36359 ft | 435 kts | 284° |
| 2026-04-22 20:21 | 51.42533 | 2.15360 | 36364 ft | 434 kts | 284° |
| 2026-04-22 20:22 | 51.43693 | 2.05861 | 36364 ft | 434 kts | 284° |
| 2026-04-22 20:22 | 51.44838 | 1.96360 | 36368 ft | 434 kts | 284° |
| 2026-04-22 20:23 | 51.45965 | 1.86862 | 36368 ft | 434 kts | 284° |
| 2026-04-22 20:23 | 51.47062 | 1.77348 | 36362 ft | 433 kts | 284° |
| 2026-04-22 20:24 | 51.48145 | 1.67848 | 36379 ft | 433 kts | 284° |
| 2026-04-22 20:24 | 51.49224 | 1.58350 | 36376 ft | 433 kts | 284° |
| 2026-04-22 20:25 | 51.50297 | 1.48847 | 36367 ft | 432 kts | 284° |
| 2026-04-22 20:25 | 51.51355 | 1.39417 | 36367 ft | 431 kts | 283° |
| 2026-04-22 20:26 | 51.52411 | 1.29934 | 36372 ft | 431 kts | 283° |
| 2026-04-22 20:26 | 51.53458 | 1.20472 | 36377 ft | 430 kts | 283° |
| 2026-04-22 20:27 | 51.54440 | 1.10983 | 36370 ft | 431 kts | 281° |
| 2026-04-22 20:27 | 51.55077 | 1.01412 | 36376 ft | 431 kts | 279° |
| 2026-04-22 20:28 | 51.55634 | 0.91815 | 36387 ft | 431 kts | 278° |
| 2026-04-22 20:28 | 51.56210 | 0.82238 | 36400 ft | 431 kts | 279° |
| 2026-04-22 20:29 | 51.56799 | 0.72661 | 36406 ft | 431 kts | 279° |
| 2026-04-22 20:29 | 51.57388 | 0.63053 | 36402 ft | 432 kts | 278° |
| 2026-04-22 20:30 | 51.57970 | 0.53431 | 36404 ft | 433 kts | 278° |
| 2026-04-22 20:30 | 51.58449 | 0.45411 | 36380 ft | 434 kts | 278° |
| 2026-04-22 20:31 | 51.59110 | 0.34173 | 36386 ft | 434 kts | 278° |
| 2026-04-22 20:31 | 51.59670 | 0.24494 | 36398 ft | 435 kts | 278° |
| 2026-04-22 20:32 | 51.60134 | 0.16375 | 36396 ft | 435 kts | 278° |
| 2026-04-22 20:32 | 51.60680 | 0.06684 | 36400 ft | 435 kts | 278° |
| 2026-04-22 20:33 | 51.61220 | -0.03021 | 36413 ft | 435 kts | 277° |
| 2026-04-22 20:33 | 51.61749 | -0.12665 | 36439 ft | 434 kts | 278° |
| 2026-04-22 20:34 | 51.62328 | -0.22330 | 36457 ft | 434 kts | 278° |
| 2026-04-22 20:34 | 51.62927 | -0.31980 | 36452 ft | 433 kts | 278° |
| 2026-04-22 20:35 | 51.63515 | -0.41626 | 36376 ft | 432 kts | 278° |
| 2026-04-22 20:35 | 51.64089 | -0.51272 | 36371 ft | 432 kts | 278° |
| 2026-04-22 20:36 | 51.64651 | -0.60895 | 36373 ft | 431 kts | 278° |
| 2026-04-22 20:36 | 51.65204 | -0.70511 | 36371 ft | 431 kts | 278° |
| 2026-04-22 20:37 | 51.65750 | -0.80125 | 36365 ft | 431 kts | 278° |
| 2026-04-22 20:37 | 51.66285 | -0.89693 | 36366 ft | 431 kts | 278° |
| 2026-04-22 20:38 | 51.66816 | -0.99320 | 36341 ft | 431 kts | 277° |
| 2026-04-22 20:38 | 51.67339 | -1.08957 | 36348 ft | 431 kts | 277° |
| 2026-04-22 20:39 | 51.67854 | -1.18594 | 36348 ft | 431 kts | 277° |
| 2026-04-22 20:39 | 51.68362 | -1.28244 | 36349 ft | 431 kts | 277° |
| 2026-04-22 20:40 | 51.68861 | -1.37882 | 36376 ft | 432 kts | 277° |
| 2026-04-22 20:40 | 51.69353 | -1.47527 | 36370 ft | 432 kts | 276° |
| 2026-04-22 20:41 | 51.69835 | -1.57110 | 36374 ft | 432 kts | 276° |
| 2026-04-22 20:41 | 51.70461 | -1.66727 | 36368 ft | 430 kts | 284° |
| 2026-04-22 20:42 | 51.72501 | -1.75718 | 36348 ft | 427 kts | 297° |
| 2026-04-22 20:42 | 51.75220 | -1.84258 | 36342 ft | 428 kts | 298° |
| 2026-04-22 20:43 | 51.77908 | -1.92841 | 36350 ft | 428 kts | 297° |
| 2026-04-22 20:43 | 51.80564 | -2.01470 | 36349 ft | 429 kts | 297° |
| 2026-04-22 20:44 | 51.83113 | -2.10198 | 36349 ft | 430 kts | 294° |
| 2026-04-22 20:44 | 51.85537 | -2.19061 | 36339 ft | 431 kts | 294° |
| 2026-04-22 20:45 | 51.87961 | -2.27952 | 36339 ft | 432 kts | 294° |
| 2026-04-22 20:45 | 51.90398 | -2.36850 | 36339 ft | 433 kts | 294° |
| 2026-04-22 20:46 | 51.94054 | -2.50199 | 36335 ft | 434 kts | 294° |
| 2026-04-22 20:46 | 51.96491 | -2.59137 | 36337 ft | 434 kts | 293° |
| 2026-04-22 20:47 | 51.98928 | -2.68109 | 36339 ft | 434 kts | 293° |
| 2026-04-22 20:47 | 52.01357 | -2.77090 | 36345 ft | 435 kts | 293° |
| 2026-04-22 20:48 | 52.03781 | -2.86085 | 36338 ft | 435 kts | 293° |
| 2026-04-22 20:48 | 52.06185 | -2.95040 | 36341 ft | 435 kts | 292° |
| 2026-04-22 20:49 | 52.08593 | -3.04050 | 36339 ft | 434 kts | 292° |
| 2026-04-22 20:49 | 52.10995 | -3.13065 | 36353 ft | 433 kts | 292° |
| 2026-04-22 20:50 | 52.13382 | -3.22062 | 36341 ft | 433 kts | 292° |
| 2026-04-22 20:50 | 52.15758 | -3.31057 | 36342 ft | 432 kts | 292° |
| 2026-04-22 20:51 | 52.18125 | -3.40049 | 36335 ft | 432 kts | 292° |
| 2026-04-22 20:51 | 52.20486 | -3.49057 | 36328 ft | 431 kts | 291° |
| 2026-04-22 20:52 | 52.22816 | -3.57994 | 36320 ft | 430 kts | 291° |
| 2026-04-22 20:52 | 52.25154 | -3.66972 | 36323 ft | 428 kts | 290° |
| 2026-04-22 20:53 | 52.27471 | -3.75925 | 36327 ft | 428 kts | 290° |
| 2026-04-22 20:53 | 52.29798 | -3.84930 | 35710 ft | 436 kts | 291° |
| 2026-04-22 20:54 | 52.30970 | -3.89498 | 35174 ft | 434 kts | 290° |
| 2026-04-22 20:54 | 52.32140 | -3.94049 | 34545 ft | 435 kts | 291° |
| 2026-04-22 20:54 | 52.33299 | -3.98565 | 33865 ft | 436 kts | 291° |
| 2026-04-22 20:54 | 52.34463 | -4.03120 | 33388 ft | 432 kts | 291° |
| 2026-04-22 20:55 | 52.35614 | -4.07630 | 32914 ft | 428 kts | 290° |
| 2026-04-22 20:55 | 52.36753 | -4.12102 | 32463 ft | 424 kts | 290° |
| 2026-04-22 20:55 | 52.37883 | -4.16549 | 32019 ft | 421 kts | 290° |
| 2026-04-22 20:55 | 52.39000 | -4.20953 | 31586 ft | 418 kts | 290° |
| 2026-04-22 20:56 | 52.40108 | -4.25329 | 31163 ft | 415 kts | 290° |
| 2026-04-22 20:56 | 52.41206 | -4.29673 | 30739 ft | 412 kts | 290° |
| 2026-04-22 20:56 | 52.42317 | -4.34003 | 30294 ft | 410 kts | 293° |
| 2026-04-22 20:56 | 52.43727 | -4.38057 | 29770 ft | 410 kts | 302° |
| 2026-04-22 20:57 | 52.45540 | -4.41712 | 29104 ft | 414 kts | 311° |
| 2026-04-22 20:57 | 52.47516 | -4.45118 | 28646 ft | 411 kts | 311° |
| 2026-04-22 20:57 | 52.49493 | -4.48493 | 28195 ft | 408 kts | 311° |
| 2026-04-22 20:57 | 52.51451 | -4.51858 | 27741 ft | 405 kts | 311° |
| 2026-04-22 20:58 | 52.53382 | -4.55207 | 27307 ft | 403 kts | 311° |
| 2026-04-22 20:58 | 52.55292 | -4.58547 | 26878 ft | 400 kts | 310° |
| 2026-04-22 20:58 | 52.57186 | -4.61875 | 26461 ft | 397 kts | 310° |
| 2026-04-22 20:58 | 52.59044 | -4.65150 | 26056 ft | 395 kts | 310° |
| 2026-04-22 20:59 | 52.60913 | -4.68451 | 25633 ft | 393 kts | 310° |
| 2026-04-22 20:59 | 52.62774 | -4.71739 | 25217 ft | 392 kts | 310° |
| 2026-04-22 20:59 | 52.64623 | -4.75010 | 24806 ft | 390 kts | 310° |
| 2026-04-22 20:59 | 52.66475 | -4.78290 | 24327 ft | 390 kts | 310° |
| 2026-04-22 21:00 | 52.68340 | -4.81593 | 23721 ft | 395 kts | 310° |
| 2026-04-22 21:00 | 52.70209 | -4.84906 | 23221 ft | 393 kts | 310° |
| 2026-04-22 21:00 | 52.72067 | -4.88202 | 22777 ft | 391 kts | 310° |
| 2026-04-22 21:00 | 52.73913 | -4.91480 | 22342 ft | 388 kts | 310° |
| 2026-04-22 21:01 | 52.75740 | -4.94729 | 21936 ft | 385 kts | 310° |
| 2026-04-22 21:01 | 52.77531 | -4.97921 | 21548 ft | 382 kts | 310° |
| 2026-04-22 21:01 | 52.79349 | -5.01165 | 21288 ft | 378 kts | 310° |
| 2026-04-22 21:01 | 52.81139 | -5.04366 | 20959 ft | 391 kts | 310° |
| 2026-04-22 21:02 | 52.83000 | -5.07704 | 20527 ft | 396 kts | 310° |
| 2026-04-22 21:02 | 52.84867 | -5.11049 | 20067 ft | 394 kts | 310° |
| 2026-04-22 21:02 | 52.86721 | -5.14374 | 19619 ft | 391 kts | 310° |
| 2026-04-22 21:02 | 52.88559 | -5.17675 | 19180 ft | 389 kts | 310° |
| 2026-04-22 21:03 | 52.90383 | -5.20956 | 18742 ft | 386 kts | 310° |
| 2026-04-22 21:03 | 52.92195 | -5.24222 | 18254 ft | 384 kts | 310° |
| 2026-04-22 21:03 | 52.93992 | -5.27466 | 17771 ft | 381 kts | 310° |
| 2026-04-22 21:03 | 52.95779 | -5.30693 | 17322 ft | 378 kts | 310° |
| 2026-04-22 21:04 | 52.97547 | -5.33892 | 16879 ft | 375 kts | 309° |
| 2026-04-22 21:04 | 52.99304 | -5.37075 | 16441 ft | 372 kts | 310° |
| 2026-04-22 21:04 | 53.01048 | -5.40240 | 16013 ft | 369 kts | 309° |
| 2026-04-22 21:04 | 53.02776 | -5.43386 | 15588 ft | 367 kts | 310° |
| 2026-04-22 21:05 | 53.04490 | -5.46507 | 15178 ft | 365 kts | 310° |
| 2026-04-22 21:05 | 53.06167 | -5.49658 | 14750 ft | 362 kts | 304° |
| 2026-04-22 21:05 | 53.07314 | -5.53322 | 14319 ft | 355 kts | 288° |
| 2026-04-22 21:05 | 53.08184 | -5.57162 | 13847 ft | 355 kts | 288° |
| 2026-04-22 21:06 | 53.09062 | -5.60992 | 13397 ft | 353 kts | 288° |
| 2026-04-22 21:06 | 53.09947 | -5.64792 | 12953 ft | 352 kts | 288° |
| 2026-04-22 21:06 | 53.10837 | -5.68573 | 12533 ft | 350 kts | 289° |
| 2026-04-22 21:06 | 53.11730 | -5.72337 | 12112 ft | 349 kts | 289° |
| 2026-04-22 21:07 | 53.12619 | -5.76084 | 11700 ft | 348 kts | 289° |
| 2026-04-22 21:07 | 53.13506 | -5.79827 | 11289 ft | 347 kts | 289° |
| 2026-04-22 21:07 | 53.14420 | -5.83512 | 11085 ft | 340 kts | 290° |
| 2026-04-22 21:07 | 53.15356 | -5.87079 | 10918 ft | 332 kts | 291° |
| 2026-04-22 21:08 | 53.16278 | -5.90557 | 10758 ft | 324 kts | 291° |
| 2026-04-22 21:08 | 53.17178 | -5.93959 | 10613 ft | 316 kts | 291° |
| 2026-04-22 21:08 | 53.18039 | -5.97240 | 10479 ft | 309 kts | 290° |
| 2026-04-22 21:08 | 53.18886 | -6.00484 | 10341 ft | 302 kts | 290° |
| 2026-04-22 21:09 | 53.19717 | -6.03681 | 10082 ft | 300 kts | 290° |
| 2026-04-22 21:09 | 53.20544 | -6.06873 | 9791 ft | 299 kts | 290° |
| 2026-04-22 21:09 | 53.21365 | -6.10047 | 9494 ft | 298 kts | 290° |
| 2026-04-22 21:09 | 53.22185 | -6.13216 | 9205 ft | 297 kts | 290° |
| 2026-04-22 21:10 | 53.22998 | -6.16367 | 8928 ft | 295 kts | 290° |
| 2026-04-22 21:10 | 53.23808 | -6.19509 | 8645 ft | 294 kts | 290° |
| 2026-04-22 21:10 | 53.24612 | -6.22637 | 8371 ft | 292 kts | 290° |
| 2026-04-22 21:10 | 53.25413 | -6.25757 | 8083 ft | 292 kts | 290° |
| 2026-04-22 21:11 | 53.26210 | -6.28863 | 7789 ft | 289 kts | 290° |
| 2026-04-22 21:11 | 53.26994 | -6.31926 | 7623 ft | 283 kts | 290° |
| 2026-04-22 21:11 | 53.27759 | -6.34910 | 7533 ft | 275 kts | 290° |
| 2026-04-22 21:11 | 53.28464 | -6.37850 | 7398 ft | 268 kts | 280° |
| 2026-04-22 21:12 | 53.28578 | -6.39846 | 7326 ft | 255 kts | 258° |
| 2026-04-22 21:12 | 53.27746 | -6.43302 | 7317 ft | 233 kts | 228° |
| 2026-04-22 21:12 | 53.26633 | -6.45196 | 7333 ft | 229 kts | 214° |
| 2026-04-22 21:12 | 53.25389 | -6.46847 | 7337 ft | 233 kts | 213° |
| 2026-04-22 21:13 | 53.24099 | -6.48523 | 7327 ft | 235 kts | 213° |
| 2026-04-22 21:13 | 53.22816 | -6.50203 | 7305 ft | 234 kts | 213° |
| 2026-04-22 21:13 | 53.21659 | -6.52107 | 7301 ft | 240 kts | 236° |
| 2026-04-22 21:13 | 53.21036 | -6.54707 | 7327 ft | 242 kts | 245° |
| 2026-04-22 21:14 | 53.20454 | -6.57341 | 7311 ft | 241 kts | 244° |
| 2026-04-22 21:14 | 53.19864 | -6.59965 | 7306 ft | 242 kts | 244° |
| 2026-04-22 21:14 | 53.19269 | -6.62608 | 7309 ft | 243 kts | 244° |
| 2026-04-22 21:14 | 53.18672 | -6.65248 | 7335 ft | 244 kts | 244° |
| 2026-04-22 21:15 | 53.18410 | -6.68081 | 7286 ft | 256 kts | 273° |
| 2026-04-22 21:15 | 53.18749 | -6.71000 | 7314 ft | 258 kts | 276° |
| 2026-04-22 21:15 | 53.19087 | -6.73943 | 7302 ft | 258 kts | 276° |
| 2026-04-22 21:15 | 53.19413 | -6.76880 | 7291 ft | 258 kts | 276° |
| 2026-04-22 21:16 | 53.19734 | -6.79822 | 7287 ft | 258 kts | 275° |
| 2026-04-22 21:16 | 53.20149 | -6.82734 | 7276 ft | 262 kts | 291° |
| 2026-04-22 21:16 | 53.21230 | -6.85190 | 7320 ft | 264 kts | 309° |
| 2026-04-22 21:16 | 53.22046 | -6.86703 | 7302 ft | 265 kts | 309° |
| 2026-04-22 21:17 | 53.23696 | -6.89715 | 7293 ft | 267 kts | 317° |
| 2026-04-22 21:17 | 53.25323 | -6.91085 | 7298 ft | 260 kts | 352° |
| 2026-04-22 21:17 | 53.27063 | -6.90930 | 7233 ft | 246 kts | 22° |
| 2026-04-22 21:17 | 53.28494 | -6.89601 | 7014 ft | 227 kts | 46° |
| 2026-04-22 21:18 | 53.29205 | -6.88347 | 6863 ft | 213 kts | 60° |
| 2026-04-22 21:18 | 53.30023 | -6.86359 | 6713 ft | 203 kts | 64° |
| 2026-04-22 21:18 | 53.30767 | -6.84434 | 6573 ft | 197 kts | 64° |
| 2026-04-22 21:18 | 53.31509 | -6.82501 | 6438 ft | 199 kts | 64° |
| 2026-04-22 21:19 | 53.32278 | -6.80512 | 6277 ft | 206 kts | 64° |
| 2026-04-22 21:19 | 53.33069 | -6.78476 | 6113 ft | 210 kts | 64° |
| 2026-04-22 21:19 | 53.33871 | -6.76425 | 5925 ft | 209 kts | 64° |
| 2026-04-22 21:19 | 53.34670 | -6.74383 | 5503 ft | 209 kts | 64° |
| 2026-04-22 21:20 | 53.35446 | -6.72409 | 5283 ft | 197 kts | 64° |
| 2026-04-22 21:20 | 53.36191 | -6.70541 | 5115 ft | 194 kts | 60° |
| 2026-04-22 21:20 | 53.37330 | -6.69278 | 4903 ft | 212 kts | 14° |
| 2026-04-22 21:20 | 53.38802 | -6.69129 | 4816 ft | 212 kts | 9° |
| 2026-04-22 21:21 | 53.40287 | -6.68943 | 4626 ft | 215 kts | 10° |
| 2026-04-22 21:21 | 53.41771 | -6.68733 | 4446 ft | 212 kts | 10° |
| 2026-04-22 21:21 | 53.43228 | -6.68522 | 4264 ft | 209 kts | 12° |
| 2026-04-22 21:21 | 53.44528 | -6.67755 | 4078 ft | 190 kts | 50° |
| 2026-04-22 21:22 | 53.45285 | -6.66073 | 3986 ft | 177 kts | 73° |
| 2026-04-22 21:22 | 53.45468 | -6.64123 | 3853 ft | 167 kts | 100° |
| 2026-04-22 21:22 | 53.45427 | -6.62162 | 3713 ft | 169 kts | 97° |
| 2026-04-22 21:22 | 53.45416 | -6.60203 | 3570 ft | 166 kts | 96° |
| 2026-04-22 21:23 | 53.45393 | -6.58280 | 3442 ft | 164 kts | 99° |
| 2026-04-22 21:23 | 53.45317 | -6.56373 | 3298 ft | 164 kts | 101° |
| 2026-04-22 21:23 | 53.45219 | -6.54478 | 3176 ft | 163 kts | 101° |
| 2026-04-22 21:23 | 53.45115 | -6.52629 | 3118 ft | 161 kts | 101° |
| 2026-04-22 21:24 | 53.45007 | -6.50747 | 2913 ft | 161 kts | 101° |
| 2026-04-22 21:24 | 53.44902 | -6.48917 | 2700 ft | 154 kts | 101° |
| 2026-04-22 21:24 | 53.44802 | -6.47173 | 2517 ft | 149 kts | 101° |
| 2026-04-22 21:24 | 53.44701 | -6.45446 | 2304 ft | 148 kts | 100° |
| 2026-04-22 21:25 | 53.44602 | -6.43725 | 2100 ft | 148 kts | 100° |
| 2026-04-22 21:25 | 53.44504 | -6.41998 | 1899 ft | 149 kts | 100° |
| 2026-04-22 21:25 | 53.44405 | -6.40272 | 1685 ft | 146 kts | 99° |
| 2026-04-22 21:25 | 53.44315 | -6.38657 | 1500 ft | 134 kts | 99° |
| 2026-04-22 21:26 | 53.44226 | -6.37112 | 1324 ft | 134 kts | 99° |
| 2026-04-22 21:26 | 53.44138 | -6.35561 | 1136 ft | 133 kts | 98° |
| 2026-04-22 21:26 | 53.44052 | -6.34022 | 946 ft | 132 kts | 96° |
| 2026-04-22 21:26 | 53.43965 | -6.32498 | 761 ft | 131 kts | 96° |
| 2026-04-22 21:27 | 53.43878 | -6.30991 | 598 ft | 131 kts | 97° |
| 2026-04-22 21:27 | 53.43790 | -6.29451 | 409 ft | 134 kts | 94° |
| 2026-04-22 21:27 | 53.43710 | -6.27878 | 240 ft | 137 kts | 96° |
| 2026-04-22 21:27 | 53.43625 | -6.26411 | 212 ft | 108 kts | 95° |
| 2026-04-22 21:28 | 53.43576 | -6.25509 | 216 ft | 47 kts | 96° |
| 2026-04-22 21:28 | 53.43504 | -6.25157 | 215 ft | 21 kts | 120° |
| 2026-04-22 21:28 | 53.43438 | -6.24994 | 213 ft | 13 kts | 147° |
| 2026-04-22 21:28 | 53.43381 | -6.25049 | 214 ft | 11 kts | 261° |
| 2026-04-22 21:29 | 53.43386 | -6.25182 | 218 ft | 14 kts | 275° |
| 2026-04-22 21:29 | 53.43393 | -6.25309 | 216 ft | 18 kts | 275° |
| 2026-04-22 21:29 | 53.43405 | -6.25515 | 210 ft | 18 kts | 275° |
| 2026-04-22 21:29 | 53.43375 | -6.25654 | 210 ft | 13 kts | 194° |
| 2026-04-22 21:30 | 53.43292 | -6.25604 | 213 ft | 13 kts | 156° |
| 2026-04-22 21:30 | 53.43201 | -6.25537 | 211 ft | 18 kts | 155° |
| 2026-04-22 21:30 | 53.43075 | -6.25447 | 213 ft | 19 kts | 157° |
| 2026-04-22 21:30 | 53.42964 | -6.25365 | 216 ft | 13 kts | 151° |
| 2026-04-22 21:31 | 53.42961 | -6.25231 | 213 ft | 13 kts | 78° |
| 2026-04-22 21:31 | 53.42958 | -6.25107 | 210 ft | 9 kts | 95° |
| 2026-04-22 21:31 | 53.42953 | -6.25007 | 217 ft | 6 kts | 96° |
| 2026-04-22 21:31 | 53.42955 | -6.24960 | 218 ft | 4 kts | 62° |
| 2026-04-22 21:32 | 53.42981 | -6.24947 | 212 ft | 4 kts | 4° |
| 2026-04-22 21:32 | 53.43009 | -6.24943 | 210 ft | 0 kts | 5° |